<?xml version="1.0" encoding="UTF-8" standalone="no" ?>
<gpx xmlns="http://www.topografix.com/GPX/1/1" xmlns:xsi="http://www.w3.org/2001/XMLSchema-instance" xsi:schemaLocation="http://www.topografix.com/GPX/1/1 http://www.topografix.com/GPX/1/1/gpx.xsd" version="1.1" creator="VisuGPX - https://www.visugpx.com">
  <metadata>
    <name>Le Glandasse à partir de Chatillon-en-Diois via la Fontaine des Tuiles</name>
  </metadata>
  <wpt lat="44.69527" lon="5.48514">
    <ele>588</ele>
    <name><![CDATA[Mairie de Châtillon-en-Diois]]></name>
  </wpt>
  <wpt lat="44.6964" lon="5.48414">
    <ele>604</ele>
    <name><![CDATA[Montée du Tricot]]></name>
  </wpt>
  <wpt lat="44.7008" lon="5.48042">
    <ele>660</ele>
    <name><![CDATA[Le Suel]]></name>
  </wpt>
  <wpt lat="44.69879" lon="5.46674">
    <ele>869</ele>
    <name><![CDATA[La Baume]]></name>
  </wpt>
  <wpt lat="44.70452" lon="5.46321">
    <ele>1124</ele>
    <name><![CDATA[Pié de Boeuf]]></name>
  </wpt>
  <wpt lat="44.72045" lon="5.46059">
    <ele>1114</ele>
    <name><![CDATA[Les Caux]]></name>
  </wpt>
  <wpt lat="44.72213" lon="5.46338">
    <ele>1054</ele>
    <name><![CDATA[Bifurcation à gauche]]></name>
  </wpt>
  <wpt lat="44.71823" lon="5.47335">
    <ele>1169</ele>
    <name><![CDATA[Bifurcation à gauche]]></name>
  </wpt>
  <wpt lat="44.72409" lon="5.47333">
    <ele>1491</ele>
    <name><![CDATA[Fontaine des Tuiles]]></name>
  </wpt>
  <wpt lat="44.72673" lon="5.48454">
    <ele>1761</ele>
    <name><![CDATA[Col de la Raille]]></name>
  </wpt>
  <wpt lat="44.72824" lon="5.48326">
    <ele>1791</ele>
    <name><![CDATA[Intersection - GR91]]></name>
  </wpt>
  <wpt lat="44.7285" lon="5.48303">
    <ele>1795</ele>
    <name><![CDATA[GR91 (orientation à droite)]]></name>
  </wpt>
  <wpt lat="44.72871" lon="5.48291">
    <ele>1801</ele>
    <name><![CDATA[Fourche]]></name>
  </wpt>
  <wpt lat="44.73912" lon="5.47341">
    <ele>1946</ele>
    <name><![CDATA[En direction du sommet, ...]]></name>
  </wpt>
  <wpt lat="44.73724" lon="5.47021">
    <ele>2031</ele>
    <name><![CDATA[le Dôme ou Pié Ferré (2041 m)]]></name>
  </wpt>
  <wpt lat="44.73188" lon="5.47145">
    <ele>1981</ele>
    <name><![CDATA[Roc d'Ambane]]></name>
  </wpt>
  <wpt lat="44.72093" lon="5.48929">
    <ele>1701</ele>
    <name><![CDATA[Baume Rousse]]></name>
  </wpt>
  <wpt lat="44.71233" lon="5.48756">
    <ele>1160</ele>
    <name><![CDATA[Serre des Granges]]></name>
  </wpt>
  <wpt lat="44.70809" lon="5.48594">
    <ele>975</ele>
    <name><![CDATA[Bifurcation]]></name>
  </wpt>
  <wpt lat="44.70405" lon="5.48534">
    <ele>837</ele>
    <name><![CDATA[L'Oursière (bifurcation chemin de Marateste)]]></name>
  </wpt>
  <wpt lat="44.69523" lon="5.48514">
    <ele>588</ele>
    <name><![CDATA[Mairie de Châtillon-en-Diois]]></name>
  </wpt>
  <trk>
    <name><![CDATA[Le Glandasse à partir de Chatillon-en-Diois via la Fontaine des Tuiles]]></name>
    <trkseg>
      <trkpt lat="44.69527" lon="5.48514">
        <ele>588</ele>
        <time>2017-08-16T20:34:58+02:00</time>
      </trkpt>
      <trkpt lat="44.69551" lon="5.48507">
        <ele>591</ele>
        <time>2017-08-16T20:35:03+02:00</time>
      </trkpt>
      <trkpt lat="44.69571" lon="5.48502">
        <ele>593</ele>
        <time>2017-08-16T20:35:08+02:00</time>
      </trkpt>
      <trkpt lat="44.69588" lon="5.48494">
        <ele>595</ele>
        <time>2017-08-16T20:35:13+02:00</time>
      </trkpt>
      <trkpt lat="44.69609" lon="5.48472">
        <ele>599</ele>
        <time>2017-08-16T20:35:18+02:00</time>
      </trkpt>
      <trkpt lat="44.6964" lon="5.48414">
        <ele>604</ele>
        <time>2020-07-12T15:44:09+02:00</time>
      </trkpt>
      <trkpt lat="44.69657" lon="5.48381">
        <ele>601</ele>
        <time>2017-08-16T20:35:23+02:00</time>
      </trkpt>
      <trkpt lat="44.69674" lon="5.48367">
        <ele>602</ele>
        <time>2017-08-16T20:35:28+02:00</time>
      </trkpt>
      <trkpt lat="44.69711" lon="5.48355">
        <ele>610</ele>
        <time>2017-08-16T20:35:33+02:00</time>
      </trkpt>
      <trkpt lat="44.69726" lon="5.48347">
        <ele>613</ele>
        <time>2017-08-16T20:35:38+02:00</time>
      </trkpt>
      <trkpt lat="44.6974" lon="5.48325">
        <ele>614</ele>
        <time>2017-08-16T20:35:43+02:00</time>
      </trkpt>
      <trkpt lat="44.69752" lon="5.48294">
        <ele>614</ele>
        <time>2017-08-16T20:35:48+02:00</time>
      </trkpt>
      <trkpt lat="44.69767" lon="5.48217">
        <ele>615</ele>
        <time>2017-08-16T20:35:53+02:00</time>
      </trkpt>
      <trkpt lat="44.6978" lon="5.48186">
        <ele>619</ele>
        <time>2017-08-16T20:35:58+02:00</time>
      </trkpt>
      <trkpt lat="44.69791" lon="5.48164">
        <ele>620</ele>
        <time>2017-08-16T20:36:03+02:00</time>
      </trkpt>
      <trkpt lat="44.69818" lon="5.48137">
        <ele>624</ele>
        <time>2017-08-16T20:36:08+02:00</time>
      </trkpt>
      <trkpt lat="44.69858" lon="5.48107">
        <ele>633</ele>
        <time>2017-08-16T20:36:13+02:00</time>
      </trkpt>
      <trkpt lat="44.69901" lon="5.48075">
        <ele>640</ele>
        <time>2017-08-16T20:36:18+02:00</time>
      </trkpt>
      <trkpt lat="44.69935" lon="5.48061">
        <ele>646</ele>
        <time>2017-08-16T20:36:23+02:00</time>
      </trkpt>
      <trkpt lat="44.69971" lon="5.48049">
        <ele>650</ele>
        <time>2017-08-16T20:36:28+02:00</time>
      </trkpt>
      <trkpt lat="44.70042" lon="5.48033">
        <ele>656</ele>
        <time>2017-08-16T20:36:33+02:00</time>
      </trkpt>
      <trkpt lat="44.70065" lon="5.48036">
        <ele>658</ele>
        <time>2017-08-16T20:36:38+02:00</time>
      </trkpt>
      <trkpt lat="44.7008" lon="5.48042">
        <ele>660</ele>
        <time>2017-08-16T20:36:43+02:00</time>
      </trkpt>
      <trkpt lat="44.70055" lon="5.47984">
        <ele>660</ele>
        <time>2017-08-16T20:36:48+02:00</time>
      </trkpt>
      <trkpt lat="44.70038" lon="5.47962">
        <ele>668</ele>
        <time>2017-08-16T20:36:53+02:00</time>
      </trkpt>
      <trkpt lat="44.70031" lon="5.47954">
        <ele>671</ele>
        <time>2017-08-16T20:36:58+02:00</time>
      </trkpt>
      <trkpt lat="44.69987" lon="5.47939">
        <ele>675</ele>
        <time>2017-08-16T20:37:03+02:00</time>
      </trkpt>
      <trkpt lat="44.69953" lon="5.4794">
        <ele>669</ele>
        <time>2017-08-16T20:37:08+02:00</time>
      </trkpt>
      <trkpt lat="44.69939" lon="5.47929">
        <ele>671</ele>
        <time>2017-08-16T20:37:13+02:00</time>
      </trkpt>
      <trkpt lat="44.69939" lon="5.47914">
        <ele>678</ele>
        <time>2017-08-16T20:37:18+02:00</time>
      </trkpt>
      <trkpt lat="44.69963" lon="5.47911">
        <ele>685</ele>
        <time>2017-08-16T20:37:23+02:00</time>
      </trkpt>
      <trkpt lat="44.69923" lon="5.47882">
        <ele>691</ele>
        <time>2017-08-16T20:37:28+02:00</time>
      </trkpt>
      <trkpt lat="44.69837" lon="5.47821">
        <ele>700</ele>
        <time>2017-08-16T20:37:33+02:00</time>
      </trkpt>
      <trkpt lat="44.69818" lon="5.47808">
        <ele>707</ele>
        <time>2017-08-16T20:37:38+02:00</time>
      </trkpt>
      <trkpt lat="44.69792" lon="5.47801">
        <ele>710</ele>
        <time>2017-08-16T20:37:43+02:00</time>
      </trkpt>
      <trkpt lat="44.69754" lon="5.47814">
        <ele>706</ele>
        <time>2017-08-16T20:37:48+02:00</time>
      </trkpt>
      <trkpt lat="44.69718" lon="5.47828">
        <ele>698</ele>
        <time>2017-08-16T20:37:53+02:00</time>
      </trkpt>
      <trkpt lat="44.69738" lon="5.47733">
        <ele>723</ele>
        <time>2017-08-16T20:37:58+02:00</time>
      </trkpt>
      <trkpt lat="44.69791" lon="5.47581">
        <ele>774</ele>
        <time>2017-08-16T20:38:03+02:00</time>
      </trkpt>
      <trkpt lat="44.69811" lon="5.47527">
        <ele>783</ele>
        <time>2017-08-16T20:38:08+02:00</time>
      </trkpt>
      <trkpt lat="44.69819" lon="5.47482">
        <ele>787</ele>
        <time>2017-08-16T20:38:13+02:00</time>
      </trkpt>
      <trkpt lat="44.69859" lon="5.47421">
        <ele>806</ele>
        <time>2017-08-16T20:38:18+02:00</time>
      </trkpt>
      <trkpt lat="44.69885" lon="5.47359">
        <ele>823</ele>
        <time>2017-08-16T20:38:23+02:00</time>
      </trkpt>
      <trkpt lat="44.69898" lon="5.47322">
        <ele>833</ele>
        <time>2017-08-16T20:38:28+02:00</time>
      </trkpt>
      <trkpt lat="44.69896" lon="5.47246">
        <ele>842</ele>
        <time>2017-08-16T20:38:33+02:00</time>
      </trkpt>
      <trkpt lat="44.69869" lon="5.47139">
        <ele>843</ele>
        <time>2017-08-16T20:38:38+02:00</time>
      </trkpt>
      <trkpt lat="44.69858" lon="5.47087">
        <ele>843</ele>
        <time>2017-08-16T20:38:43+02:00</time>
      </trkpt>
      <trkpt lat="44.69858" lon="5.47056">
        <ele>846</ele>
        <time>2017-08-16T20:38:48+02:00</time>
      </trkpt>
      <trkpt lat="44.69866" lon="5.47002">
        <ele>856</ele>
        <time>2017-08-16T20:38:53+02:00</time>
      </trkpt>
      <trkpt lat="44.69848" lon="5.46873">
        <ele>861</ele>
        <time>2017-08-16T20:38:58+02:00</time>
      </trkpt>
      <trkpt lat="44.69848" lon="5.46821">
        <ele>862</ele>
        <time>2017-08-16T20:39:03+02:00</time>
      </trkpt>
      <trkpt lat="44.69858" lon="5.46765">
        <ele>861</ele>
        <time>2017-08-16T20:39:08+02:00</time>
      </trkpt>
      <trkpt lat="44.69871" lon="5.46716">
        <ele>867</ele>
        <time>2017-08-16T20:39:13+02:00</time>
      </trkpt>
      <trkpt lat="44.69879" lon="5.46674">
        <ele>869</ele>
        <time>2017-08-16T20:39:18+02:00</time>
      </trkpt>
      <trkpt lat="44.69898" lon="5.46617">
        <ele>878</ele>
        <time>2017-08-16T20:39:23+02:00</time>
      </trkpt>
      <trkpt lat="44.69919" lon="5.46577">
        <ele>885</ele>
        <time>2017-08-16T20:39:28+02:00</time>
      </trkpt>
      <trkpt lat="44.69958" lon="5.46545">
        <ele>892</ele>
        <time>2017-08-16T20:39:33+02:00</time>
      </trkpt>
      <trkpt lat="44.70005" lon="5.46499">
        <ele>899</ele>
        <time>2017-08-16T20:39:38+02:00</time>
      </trkpt>
      <trkpt lat="44.70034" lon="5.46463">
        <ele>909</ele>
        <time>2017-08-16T20:39:43+02:00</time>
      </trkpt>
      <trkpt lat="44.70059" lon="5.46433">
        <ele>917</ele>
        <time>2017-08-16T20:39:48+02:00</time>
      </trkpt>
      <trkpt lat="44.70097" lon="5.4639">
        <ele>932</ele>
        <time>2017-08-16T20:39:53+02:00</time>
      </trkpt>
      <trkpt lat="44.70133" lon="5.46335">
        <ele>943</ele>
        <time>2017-08-16T20:39:58+02:00</time>
      </trkpt>
      <trkpt lat="44.70162" lon="5.46249">
        <ele>949</ele>
        <time>2017-08-16T20:40:03+02:00</time>
      </trkpt>
      <trkpt lat="44.70207" lon="5.46113">
        <ele>961</ele>
        <time>2017-08-16T20:40:08+02:00</time>
      </trkpt>
      <trkpt lat="44.70215" lon="5.46086">
        <ele>964</ele>
        <time>2017-08-16T20:40:18+02:00</time>
      </trkpt>
      <trkpt lat="44.70217" lon="5.46066">
        <ele>963</ele>
        <time>2017-08-16T20:40:23+02:00</time>
      </trkpt>
      <trkpt lat="44.70273" lon="5.45964">
        <ele>995</ele>
        <time>2017-08-16T20:40:28+02:00</time>
      </trkpt>
      <trkpt lat="44.70271" lon="5.46026">
        <ele>997</ele>
        <time>2017-08-16T20:40:33+02:00</time>
      </trkpt>
      <trkpt lat="44.70271" lon="5.4606">
        <ele>1001</ele>
        <time>2017-08-16T20:40:38+02:00</time>
      </trkpt>
      <trkpt lat="44.70283" lon="5.46092">
        <ele>1011</ele>
        <time>2017-08-16T20:40:43+02:00</time>
      </trkpt>
      <trkpt lat="44.70291" lon="5.46108">
        <ele>1018</ele>
        <time>2017-08-16T20:40:48+02:00</time>
      </trkpt>
      <trkpt lat="44.70284" lon="5.46133">
        <ele>1015</ele>
        <time>2017-08-16T20:40:53+02:00</time>
      </trkpt>
      <trkpt lat="44.70293" lon="5.46211">
        <ele>1026</ele>
        <time>2017-08-16T20:40:58+02:00</time>
      </trkpt>
      <trkpt lat="44.70293" lon="5.4625">
        <ele>1029</ele>
        <time>2017-08-16T20:41:03+02:00</time>
      </trkpt>
      <trkpt lat="44.70328" lon="5.46161">
        <ele>1046</ele>
        <time>2017-08-16T20:41:08+02:00</time>
      </trkpt>
      <trkpt lat="44.70351" lon="5.46052">
        <ele>1057</ele>
        <time>2017-08-16T20:41:13+02:00</time>
      </trkpt>
      <trkpt lat="44.70365" lon="5.45981">
        <ele>1065</ele>
        <time>2017-08-16T20:41:18+02:00</time>
      </trkpt>
      <trkpt lat="44.70378" lon="5.45892">
        <ele>1079</ele>
        <time>2017-08-16T20:41:23+02:00</time>
      </trkpt>
      <trkpt lat="44.70364" lon="5.45808">
        <ele>1075</ele>
        <time>2017-08-16T20:41:28+02:00</time>
      </trkpt>
      <trkpt lat="44.70361" lon="5.45784">
        <ele>1069</ele>
        <time>2017-08-16T20:41:33+02:00</time>
      </trkpt>
      <trkpt lat="44.7039" lon="5.45828">
        <ele>1097</ele>
        <time>2017-08-16T20:41:38+02:00</time>
      </trkpt>
      <trkpt lat="44.70412" lon="5.45902">
        <ele>1104</ele>
        <time>2017-08-16T20:41:43+02:00</time>
      </trkpt>
      <trkpt lat="44.70432" lon="5.46025">
        <ele>1116</ele>
        <time>2017-08-16T20:41:48+02:00</time>
      </trkpt>
      <trkpt lat="44.70444" lon="5.46158">
        <ele>1126</ele>
        <time>2017-08-16T20:41:53+02:00</time>
      </trkpt>
      <trkpt lat="44.70448" lon="5.46233">
        <ele>1128</ele>
        <time>2017-08-16T20:41:58+02:00</time>
      </trkpt>
      <trkpt lat="44.70452" lon="5.46321">
        <ele>1124</ele>
        <time>2017-08-16T20:42:03+02:00</time>
      </trkpt>
      <trkpt lat="44.70507" lon="5.46291">
        <ele>1144</ele>
        <time>2017-08-16T20:42:08+02:00</time>
      </trkpt>
      <trkpt lat="44.70554" lon="5.46256">
        <ele>1150</ele>
        <time>2017-08-16T20:42:13+02:00</time>
      </trkpt>
      <trkpt lat="44.70632" lon="5.46161">
        <ele>1160</ele>
        <time>2017-08-16T20:42:18+02:00</time>
      </trkpt>
      <trkpt lat="44.70637" lon="5.46152">
        <ele>1161</ele>
        <time>2017-08-16T20:42:23+02:00</time>
      </trkpt>
      <trkpt lat="44.70669" lon="5.46151">
        <ele>1149</ele>
        <time>2017-08-16T20:42:28+02:00</time>
      </trkpt>
      <trkpt lat="44.7072" lon="5.46122">
        <ele>1152</ele>
        <time>2017-08-16T20:42:33+02:00</time>
      </trkpt>
      <trkpt lat="44.70779" lon="5.46085">
        <ele>1158</ele>
        <time>2017-08-16T20:42:38+02:00</time>
      </trkpt>
      <trkpt lat="44.70823" lon="5.4608">
        <ele>1155</ele>
        <time>2017-08-16T20:42:43+02:00</time>
      </trkpt>
      <trkpt lat="44.70905" lon="5.46121">
        <ele>1143</ele>
        <time>2017-08-16T20:42:48+02:00</time>
      </trkpt>
      <trkpt lat="44.71006" lon="5.46129">
        <ele>1148</ele>
        <time>2017-08-16T20:42:53+02:00</time>
      </trkpt>
      <trkpt lat="44.71042" lon="5.46124">
        <ele>1149</ele>
        <time>2017-08-16T20:42:58+02:00</time>
      </trkpt>
      <trkpt lat="44.71133" lon="5.46098">
        <ele>1151</ele>
        <time>2017-08-16T20:43:03+02:00</time>
      </trkpt>
      <trkpt lat="44.71227" lon="5.46045">
        <ele>1157</ele>
        <time>2017-08-16T20:43:08+02:00</time>
      </trkpt>
      <trkpt lat="44.71248" lon="5.46037">
        <ele>1157</ele>
        <time>2017-08-16T20:43:13+02:00</time>
      </trkpt>
      <trkpt lat="44.71305" lon="5.4602">
        <ele>1153</ele>
        <time>2017-08-16T20:43:18+02:00</time>
      </trkpt>
      <trkpt lat="44.71343" lon="5.46001">
        <ele>1152</ele>
        <time>2017-08-16T20:43:23+02:00</time>
      </trkpt>
      <trkpt lat="44.71407" lon="5.45997">
        <ele>1147</ele>
        <time>2017-08-16T20:43:28+02:00</time>
      </trkpt>
      <trkpt lat="44.71465" lon="5.46016">
        <ele>1140</ele>
        <time>2017-08-16T20:43:33+02:00</time>
      </trkpt>
      <trkpt lat="44.71515" lon="5.46037">
        <ele>1132</ele>
        <time>2017-08-16T20:43:38+02:00</time>
      </trkpt>
      <trkpt lat="44.71569" lon="5.4604">
        <ele>1130</ele>
        <time>2017-08-16T20:43:43+02:00</time>
      </trkpt>
      <trkpt lat="44.71605" lon="5.46025">
        <ele>1132</ele>
        <time>2017-08-16T20:43:48+02:00</time>
      </trkpt>
      <trkpt lat="44.71641" lon="5.45994">
        <ele>1137</ele>
        <time>2017-08-16T20:43:53+02:00</time>
      </trkpt>
      <trkpt lat="44.71652" lon="5.45985">
        <ele>1136</ele>
        <time>2017-08-16T20:43:58+02:00</time>
      </trkpt>
      <trkpt lat="44.71687" lon="5.45982">
        <ele>1130</ele>
        <time>2017-08-16T20:44:03+02:00</time>
      </trkpt>
      <trkpt lat="44.71715" lon="5.45963">
        <ele>1128</ele>
        <time>2017-08-16T20:44:08+02:00</time>
      </trkpt>
      <trkpt lat="44.71753" lon="5.45935">
        <ele>1126</ele>
        <time>2017-08-16T20:44:13+02:00</time>
      </trkpt>
      <trkpt lat="44.71779" lon="5.45916">
        <ele>1129</ele>
        <time>2017-08-16T20:44:18+02:00</time>
      </trkpt>
      <trkpt lat="44.71826" lon="5.45921">
        <ele>1127</ele>
        <time>2017-08-16T20:44:23+02:00</time>
      </trkpt>
      <trkpt lat="44.71882" lon="5.45976">
        <ele>1122</ele>
        <time>2017-08-16T20:44:28+02:00</time>
      </trkpt>
      <trkpt lat="44.71905" lon="5.45995">
        <ele>1121</ele>
        <time>2017-08-16T20:44:33+02:00</time>
      </trkpt>
      <trkpt lat="44.71972" lon="5.46012">
        <ele>1122</ele>
        <time>2017-08-16T20:44:38+02:00</time>
      </trkpt>
      <trkpt lat="44.71998" lon="5.4602">
        <ele>1123</ele>
        <time>2017-08-16T20:44:43+02:00</time>
      </trkpt>
      <trkpt lat="44.72045" lon="5.46059">
        <ele>1114</ele>
        <time>2017-08-16T20:44:48+02:00</time>
      </trkpt>
      <trkpt lat="44.72065" lon="5.46088">
        <ele>1114</ele>
        <time>2017-08-16T20:44:53+02:00</time>
      </trkpt>
      <trkpt lat="44.72091" lon="5.46114">
        <ele>1110</ele>
        <time>2017-08-16T20:44:58+02:00</time>
      </trkpt>
      <trkpt lat="44.72119" lon="5.46177">
        <ele>1093</ele>
        <time>2017-08-16T20:45:03+02:00</time>
      </trkpt>
      <trkpt lat="44.72158" lon="5.46214">
        <ele>1085</ele>
        <time>2017-08-16T20:45:08+02:00</time>
      </trkpt>
      <trkpt lat="44.7219" lon="5.46249">
        <ele>1082</ele>
        <time>2017-08-16T20:45:13+02:00</time>
      </trkpt>
      <trkpt lat="44.72229" lon="5.46299">
        <ele>1076</ele>
        <time>2017-08-16T20:45:18+02:00</time>
      </trkpt>
      <trkpt lat="44.72258" lon="5.46345">
        <ele>1074</ele>
        <time>2017-08-16T20:45:23+02:00</time>
      </trkpt>
      <trkpt lat="44.72264" lon="5.46378">
        <ele>1068</ele>
        <time>2017-08-16T20:45:28+02:00</time>
      </trkpt>
      <trkpt lat="44.72262" lon="5.46396">
        <ele>1061</ele>
        <time>2017-08-16T20:45:33+02:00</time>
      </trkpt>
      <trkpt lat="44.72225" lon="5.4635">
        <ele>1056</ele>
        <time>2017-08-16T20:45:38+02:00</time>
      </trkpt>
      <trkpt lat="44.72213" lon="5.46338">
        <ele>1054</ele>
        <time>2017-08-16T20:45:43+02:00</time>
      </trkpt>
      <trkpt lat="44.72232" lon="5.46391">
        <ele>1047</ele>
        <time>2017-08-16T20:45:48+02:00</time>
      </trkpt>
      <trkpt lat="44.72254" lon="5.46436">
        <ele>1053</ele>
        <time>2017-08-16T20:45:53+02:00</time>
      </trkpt>
      <trkpt lat="44.72252" lon="5.46453">
        <ele>1055</ele>
        <time>2017-08-16T20:45:58+02:00</time>
      </trkpt>
      <trkpt lat="44.72216" lon="5.46472">
        <ele>1040</ele>
        <time>2017-08-16T20:46:03+02:00</time>
      </trkpt>
      <trkpt lat="44.72184" lon="5.46504">
        <ele>1031</ele>
        <time>2017-08-16T20:46:08+02:00</time>
      </trkpt>
      <trkpt lat="44.72181" lon="5.46548">
        <ele>1049</ele>
        <time>2017-08-16T20:46:13+02:00</time>
      </trkpt>
      <trkpt lat="44.72174" lon="5.46569">
        <ele>1055</ele>
        <time>2017-08-16T20:46:18+02:00</time>
      </trkpt>
      <trkpt lat="44.72148" lon="5.46566">
        <ele>1045</ele>
        <time>2017-08-16T20:46:23+02:00</time>
      </trkpt>
      <trkpt lat="44.72129" lon="5.46587">
        <ele>1052</ele>
        <time>2017-08-16T20:46:28+02:00</time>
      </trkpt>
      <trkpt lat="44.72112" lon="5.46623">
        <ele>1066</ele>
        <time>2017-08-16T20:46:33+02:00</time>
      </trkpt>
      <trkpt lat="44.7207" lon="5.46662">
        <ele>1072</ele>
        <time>2017-08-16T20:46:38+02:00</time>
      </trkpt>
      <trkpt lat="44.7204" lon="5.46695">
        <ele>1073</ele>
        <time>2017-08-16T20:46:43+02:00</time>
      </trkpt>
      <trkpt lat="44.72034" lon="5.46769">
        <ele>1102</ele>
        <time>2017-08-16T20:46:48+02:00</time>
      </trkpt>
      <trkpt lat="44.71997" lon="5.4678">
        <ele>1091</ele>
        <time>2017-08-16T20:46:53+02:00</time>
      </trkpt>
      <trkpt lat="44.71975" lon="5.46803">
        <ele>1093</ele>
        <time>2017-08-16T20:46:58+02:00</time>
      </trkpt>
      <trkpt lat="44.71902" lon="5.46884">
        <ele>1101</ele>
        <time>2017-08-16T20:47:03+02:00</time>
      </trkpt>
      <trkpt lat="44.71887" lon="5.4689">
        <ele>1095</ele>
        <time>2017-08-16T20:47:08+02:00</time>
      </trkpt>
      <trkpt lat="44.7188" lon="5.46968">
        <ele>1118</ele>
        <time>2020-07-12T15:55:59+02:00</time>
      </trkpt>
      <trkpt lat="44.71859" lon="5.47047">
        <ele>1126</ele>
        <time>2017-08-16T20:47:13+02:00</time>
      </trkpt>
      <trkpt lat="44.7185" lon="5.47072">
        <ele>1125</ele>
        <time>2017-08-16T20:47:23+02:00</time>
      </trkpt>
      <trkpt lat="44.71855" lon="5.47106">
        <ele>1134</ele>
        <time>2017-08-16T11:47:41+02:00</time>
      </trkpt>
      <trkpt lat="44.71852" lon="5.47175">
        <ele>1139</ele>
        <time>2017-08-16T11:48:32+02:00</time>
      </trkpt>
      <trkpt lat="44.71865" lon="5.47203">
        <ele>1153</ele>
        <time>2017-08-16T11:48:58+02:00</time>
      </trkpt>
      <trkpt lat="44.71867" lon="5.47131">
        <ele>1145</ele>
        <time>2017-08-16T11:51:16+02:00</time>
      </trkpt>
      <trkpt lat="44.71883" lon="5.47195">
        <ele>1165</ele>
        <time>2017-08-16T11:52:36+02:00</time>
      </trkpt>
      <trkpt lat="44.71884" lon="5.47219">
        <ele>1168</ele>
        <time>2017-08-16T11:52:54+02:00</time>
      </trkpt>
      <trkpt lat="44.71871" lon="5.47256">
        <ele>1166</ele>
        <time>2017-08-16T11:53:07+02:00</time>
      </trkpt>
      <trkpt lat="44.71852" lon="5.47277">
        <ele>1163</ele>
        <time>2017-08-16T11:53:32+02:00</time>
      </trkpt>
      <trkpt lat="44.71834" lon="5.47299">
        <ele>1161</ele>
        <time>2017-08-16T11:54:01+02:00</time>
      </trkpt>
      <trkpt lat="44.71823" lon="5.47335">
        <ele>1169</ele>
        <time>2017-08-16T11:56:18+02:00</time>
      </trkpt>
      <trkpt lat="44.71842" lon="5.47317">
        <ele>1172</ele>
        <time>2017-08-16T11:58:41+02:00</time>
      </trkpt>
      <trkpt lat="44.71868" lon="5.47312">
        <ele>1184</ele>
        <time>2017-08-16T11:58:43+02:00</time>
      </trkpt>
      <trkpt lat="44.71886" lon="5.47293">
        <ele>1188</ele>
        <time>2017-08-16T11:58:50+02:00</time>
      </trkpt>
      <trkpt lat="44.71888" lon="5.4726">
        <ele>1178</ele>
        <time>2017-08-16T11:59:07+02:00</time>
      </trkpt>
      <trkpt lat="44.71909" lon="5.47245">
        <ele>1187</ele>
        <time>2017-08-16T11:59:24+02:00</time>
      </trkpt>
      <trkpt lat="44.71921" lon="5.47217">
        <ele>1194</ele>
        <time>2017-08-16T11:59:57+02:00</time>
      </trkpt>
      <trkpt lat="44.71926" lon="5.47186">
        <ele>1195</ele>
        <time>2017-08-16T12:00:53+02:00</time>
      </trkpt>
      <trkpt lat="44.71928" lon="5.47152">
        <ele>1194</ele>
        <time>2017-08-16T12:01:17+02:00</time>
      </trkpt>
      <trkpt lat="44.71934" lon="5.47121">
        <ele>1197</ele>
        <time>2017-08-16T12:01:54+02:00</time>
      </trkpt>
      <trkpt lat="44.71946" lon="5.47091">
        <ele>1204</ele>
        <time>2017-08-16T12:02:29+02:00</time>
      </trkpt>
      <trkpt lat="44.71956" lon="5.47062">
        <ele>1206</ele>
        <time>2017-08-16T12:03:02+02:00</time>
      </trkpt>
      <trkpt lat="44.71963" lon="5.47031">
        <ele>1201</ele>
        <time>2017-08-16T12:03:26+02:00</time>
      </trkpt>
      <trkpt lat="44.71982" lon="5.47015">
        <ele>1210</ele>
        <time>2017-08-16T12:03:54+02:00</time>
      </trkpt>
      <trkpt lat="44.72001" lon="5.46995">
        <ele>1214</ele>
        <time>2017-08-16T12:04:31+02:00</time>
      </trkpt>
      <trkpt lat="44.72" lon="5.47027">
        <ele>1228</ele>
        <time>2017-08-16T12:05:45+02:00</time>
      </trkpt>
      <trkpt lat="44.71983" lon="5.47048">
        <ele>1222</ele>
        <time>2017-08-16T12:06:12+02:00</time>
      </trkpt>
      <trkpt lat="44.71987" lon="5.47082">
        <ele>1236</ele>
        <time>2017-08-16T12:06:41+02:00</time>
      </trkpt>
      <trkpt lat="44.71978" lon="5.47112">
        <ele>1233</ele>
        <time>2017-08-16T12:07:13+02:00</time>
      </trkpt>
      <trkpt lat="44.71983" lon="5.47145">
        <ele>1240</ele>
        <time>2017-08-16T12:07:40+02:00</time>
      </trkpt>
      <trkpt lat="44.7199" lon="5.47175">
        <ele>1249</ele>
        <time>2017-08-16T12:08:12+02:00</time>
      </trkpt>
      <trkpt lat="44.71993" lon="5.47208">
        <ele>1254</ele>
        <time>2017-08-16T12:08:45+02:00</time>
      </trkpt>
      <trkpt lat="44.71996" lon="5.47241">
        <ele>1259</ele>
        <time>2017-08-16T12:09:02+02:00</time>
      </trkpt>
      <trkpt lat="44.71994" lon="5.47273">
        <ele>1261</ele>
        <time>2017-08-16T12:09:28+02:00</time>
      </trkpt>
      <trkpt lat="44.71986" lon="5.47335">
        <ele>1264</ele>
        <time>2017-08-16T12:10:39+02:00</time>
      </trkpt>
      <trkpt lat="44.7198" lon="5.47362">
        <ele>1257</ele>
        <time>2017-08-16T12:11:48+02:00</time>
      </trkpt>
      <trkpt lat="44.71999" lon="5.47386">
        <ele>1266</ele>
        <time>2017-08-16T12:12:17+02:00</time>
      </trkpt>
      <trkpt lat="44.72021" lon="5.47396">
        <ele>1277</ele>
        <time>2017-08-16T12:12:33+02:00</time>
      </trkpt>
      <trkpt lat="44.72046" lon="5.47399">
        <ele>1292</ele>
        <time>2017-08-16T12:12:46+02:00</time>
      </trkpt>
      <trkpt lat="44.72076" lon="5.47438">
        <ele>1301</ele>
        <time>2017-08-16T12:14:03+02:00</time>
      </trkpt>
      <trkpt lat="44.72091" lon="5.47463">
        <ele>1304</ele>
        <time>2017-08-16T12:14:45+02:00</time>
      </trkpt>
      <trkpt lat="44.72109" lon="5.47482">
        <ele>1310</ele>
        <time>2017-08-16T12:15:18+02:00</time>
      </trkpt>
      <trkpt lat="44.72104" lon="5.4745">
        <ele>1315</ele>
        <time>2017-08-16T12:16:09+02:00</time>
      </trkpt>
      <trkpt lat="44.72089" lon="5.47425">
        <ele>1312</ele>
        <time>2017-08-16T12:16:35+02:00</time>
      </trkpt>
      <trkpt lat="44.7208" lon="5.47395">
        <ele>1314</ele>
        <time>2017-08-16T12:17:07+02:00</time>
      </trkpt>
      <trkpt lat="44.72075" lon="5.47364">
        <ele>1317</ele>
        <time>2017-08-16T12:17:35+02:00</time>
      </trkpt>
      <trkpt lat="44.72072" lon="5.47333">
        <ele>1322</ele>
        <time>2017-08-16T12:18:12+02:00</time>
      </trkpt>
      <trkpt lat="44.72074" lon="5.47301">
        <ele>1321</ele>
        <time>2017-08-16T12:18:45+02:00</time>
      </trkpt>
      <trkpt lat="44.72081" lon="5.47269">
        <ele>1323</ele>
        <time>2017-08-16T12:19:13+02:00</time>
      </trkpt>
      <trkpt lat="44.72093" lon="5.47241">
        <ele>1329</ele>
        <time>2017-08-16T12:19:45+02:00</time>
      </trkpt>
      <trkpt lat="44.72096" lon="5.47209">
        <ele>1328</ele>
        <time>2017-08-16T12:20:17+02:00</time>
      </trkpt>
      <trkpt lat="44.72096" lon="5.47177">
        <ele>1325</ele>
        <time>2017-08-16T12:20:48+02:00</time>
      </trkpt>
      <trkpt lat="44.72084" lon="5.47126">
        <ele>1308</ele>
        <time>2017-08-16T20:38:56+02:00</time>
      </trkpt>
      <trkpt lat="44.72116" lon="5.47137">
        <ele>1320</ele>
        <time>2020-07-12T16:00:34+02:00</time>
      </trkpt>
      <trkpt lat="44.7213" lon="5.47165">
        <ele>1335</ele>
        <time>2017-08-16T12:24:26+02:00</time>
      </trkpt>
      <trkpt lat="44.72119" lon="5.47186">
        <ele>1335</ele>
        <time>2017-08-16T20:39:06+02:00</time>
      </trkpt>
      <trkpt lat="44.72122" lon="5.47255">
        <ele>1347</ele>
        <time>2020-07-12T16:00:49+02:00</time>
      </trkpt>
      <trkpt lat="44.7213" lon="5.47324">
        <ele>1357</ele>
        <time>2017-08-16T12:26:13+02:00</time>
      </trkpt>
      <trkpt lat="44.72142" lon="5.47369">
        <ele>1358</ele>
        <time>2017-08-16T12:26:52+02:00</time>
      </trkpt>
      <trkpt lat="44.7216" lon="5.47392">
        <ele>1365</ele>
        <time>2017-08-16T12:27:24+02:00</time>
      </trkpt>
      <trkpt lat="44.7218" lon="5.47427">
        <ele>1368</ele>
        <time>2017-08-16T12:27:58+02:00</time>
      </trkpt>
      <trkpt lat="44.72203" lon="5.47455">
        <ele>1373</ele>
        <time>2017-08-16T12:28:31+02:00</time>
      </trkpt>
      <trkpt lat="44.72206" lon="5.47414">
        <ele>1386</ele>
        <time>2017-08-16T12:30:01+02:00</time>
      </trkpt>
      <trkpt lat="44.72233" lon="5.47465">
        <ele>1387</ele>
        <time>2017-08-16T12:30:19+02:00</time>
      </trkpt>
      <trkpt lat="44.72256" lon="5.47467">
        <ele>1398</ele>
        <time>2017-08-16T12:30:50+02:00</time>
      </trkpt>
      <trkpt lat="44.72278" lon="5.47476">
        <ele>1408</ele>
        <time>2017-08-16T12:31:34+02:00</time>
      </trkpt>
      <trkpt lat="44.72277" lon="5.4741">
        <ele>1421</ele>
        <time>2020-07-12T16:01:39+02:00</time>
      </trkpt>
      <trkpt lat="44.72258" lon="5.47366">
        <ele>1418</ele>
        <time>2017-08-16T20:39:56+02:00</time>
      </trkpt>
      <trkpt lat="44.72279" lon="5.47347">
        <ele>1428</ele>
        <time>2020-07-12T16:01:49+02:00</time>
      </trkpt>
      <trkpt lat="44.72309" lon="5.47285">
        <ele>1432</ele>
        <time>2017-08-16T12:37:57+02:00</time>
      </trkpt>
      <trkpt lat="44.72311" lon="5.47318">
        <ele>1439</ele>
        <time>2017-08-16T12:38:30+02:00</time>
      </trkpt>
      <trkpt lat="44.72318" lon="5.47343">
        <ele>1443</ele>
        <time>2017-08-16T12:39:20+02:00</time>
      </trkpt>
      <trkpt lat="44.72333" lon="5.47368">
        <ele>1447</ele>
        <time>2017-08-16T12:39:37+02:00</time>
      </trkpt>
      <trkpt lat="44.72343" lon="5.47399">
        <ele>1451</ele>
        <time>2017-08-16T12:40:04+02:00</time>
      </trkpt>
      <trkpt lat="44.72372" lon="5.47454">
        <ele>1465</ele>
        <time>2017-08-16T12:40:33+02:00</time>
      </trkpt>
      <trkpt lat="44.72367" lon="5.47378">
        <ele>1466</ele>
        <time>2017-08-16T12:44:43+02:00</time>
      </trkpt>
      <trkpt lat="44.72377" lon="5.47337">
        <ele>1473</ele>
        <time>2017-08-16T12:46:26+02:00</time>
      </trkpt>
      <trkpt lat="44.72372" lon="5.47304">
        <ele>1466</ele>
        <time>2017-08-16T12:46:39+02:00</time>
      </trkpt>
      <trkpt lat="44.72388" lon="5.47285">
        <ele>1471</ele>
        <time>2017-08-16T12:47:07+02:00</time>
      </trkpt>
      <trkpt lat="44.724" lon="5.47261">
        <ele>1473</ele>
        <time>2017-08-16T12:47:30+02:00</time>
      </trkpt>
      <trkpt lat="44.72423" lon="5.47258">
        <ele>1483</ele>
        <time>2017-08-16T12:47:55+02:00</time>
      </trkpt>
      <trkpt lat="44.72411" lon="5.47285">
        <ele>1483</ele>
        <time>2017-08-16T12:48:46+02:00</time>
      </trkpt>
      <trkpt lat="44.72409" lon="5.47333">
        <ele>1491</ele>
        <time>2017-08-16T12:49:18+02:00</time>
      </trkpt>
      <trkpt lat="44.72431" lon="5.47314">
        <ele>1496</ele>
        <time>2017-08-16T12:50:52+02:00</time>
      </trkpt>
      <trkpt lat="44.72451" lon="5.47352">
        <ele>1509</ele>
        <time>2017-08-16T20:41:16+02:00</time>
      </trkpt>
      <trkpt lat="44.72467" lon="5.47451">
        <ele>1525</ele>
        <time>2017-08-16T20:41:21+02:00</time>
      </trkpt>
      <trkpt lat="44.72499" lon="5.47519">
        <ele>1545</ele>
        <time>2017-08-16T20:41:26+02:00</time>
      </trkpt>
      <trkpt lat="44.72518" lon="5.47576">
        <ele>1554</ele>
        <time>2017-08-16T20:41:31+02:00</time>
      </trkpt>
      <trkpt lat="44.72539" lon="5.47701">
        <ele>1575</ele>
        <time>2017-08-16T20:41:36+02:00</time>
      </trkpt>
      <trkpt lat="44.72619" lon="5.47827">
        <ele>1617</ele>
        <time>2017-08-16T13:13:39+02:00</time>
      </trkpt>
      <trkpt lat="44.72641" lon="5.47856">
        <ele>1628</ele>
        <time>2017-08-16T13:14:31+02:00</time>
      </trkpt>
      <trkpt lat="44.72654" lon="5.47907">
        <ele>1637</ele>
        <time>2017-08-16T13:16:41+02:00</time>
      </trkpt>
      <trkpt lat="44.72664" lon="5.47939">
        <ele>1647</ele>
        <time>2017-08-16T13:19:40+02:00</time>
      </trkpt>
      <trkpt lat="44.72676" lon="5.48055">
        <ele>1673</ele>
        <time>2017-08-16T13:21:33+02:00</time>
      </trkpt>
      <trkpt lat="44.72675" lon="5.4809">
        <ele>1677</ele>
        <time>2017-08-16T13:23:41+02:00</time>
      </trkpt>
      <trkpt lat="44.72677" lon="5.48123">
        <ele>1681</ele>
        <time>2017-08-16T13:23:54+02:00</time>
      </trkpt>
      <trkpt lat="44.72691" lon="5.48158">
        <ele>1692</ele>
        <time>2017-08-16T13:24:17+02:00</time>
      </trkpt>
      <trkpt lat="44.72687" lon="5.48191">
        <ele>1695</ele>
        <time>2017-08-16T13:25:02+02:00</time>
      </trkpt>
      <trkpt lat="44.72677" lon="5.48244">
        <ele>1700</ele>
        <time>2020-07-12T16:04:19+02:00</time>
      </trkpt>
      <trkpt lat="44.72672" lon="5.48314">
        <ele>1722</ele>
        <time>2017-08-16T13:27:41+02:00</time>
      </trkpt>
      <trkpt lat="44.72655" lon="5.48337">
        <ele>1723</ele>
        <time>2017-08-16T13:28:25+02:00</time>
      </trkpt>
      <trkpt lat="44.72645" lon="5.48401">
        <ele>1743</ele>
        <time>2017-08-16T13:30:06+02:00</time>
      </trkpt>
      <trkpt lat="44.72659" lon="5.48426">
        <ele>1755</ele>
        <time>2017-08-16T13:31:33+02:00</time>
      </trkpt>
      <trkpt lat="44.72673" lon="5.48454">
        <ele>1761</ele>
        <time>2017-08-16T13:33:04+02:00</time>
      </trkpt>
      <trkpt lat="44.72708" lon="5.48449">
        <ele>1766</ele>
        <time>2017-08-16T13:55:34+02:00</time>
      </trkpt>
      <trkpt lat="44.72719" lon="5.4842">
        <ele>1768</ele>
        <time>2017-08-16T13:55:37+02:00</time>
      </trkpt>
      <trkpt lat="44.72736" lon="5.48397">
        <ele>1770</ele>
        <time>2017-08-16T13:55:49+02:00</time>
      </trkpt>
      <trkpt lat="44.72749" lon="5.48367">
        <ele>1771</ele>
        <time>2017-08-16T13:56:14+02:00</time>
      </trkpt>
      <trkpt lat="44.72772" lon="5.48364">
        <ele>1777</ele>
        <time>2017-08-16T13:57:25+02:00</time>
      </trkpt>
      <trkpt lat="44.72786" lon="5.48339">
        <ele>1780</ele>
        <time>2017-08-16T13:57:41+02:00</time>
      </trkpt>
      <trkpt lat="44.72808" lon="5.4833">
        <ele>1787</ele>
        <time>2017-08-16T13:58:45+02:00</time>
      </trkpt>
      <trkpt lat="44.72824" lon="5.48326">
        <ele>1791</ele>
        <time>2017-08-16T13:59:02+02:00</time>
      </trkpt>
      <trkpt lat="44.7285" lon="5.48303">
        <ele>1795</ele>
        <time>2017-08-16T14:17:12+02:00</time>
      </trkpt>
      <trkpt lat="44.72871" lon="5.48291">
        <ele>1801</ele>
        <time>2017-08-16T14:17:44+02:00</time>
      </trkpt>
      <trkpt lat="44.72894" lon="5.48289">
        <ele>1809</ele>
        <time>2017-08-16T14:18:11+02:00</time>
      </trkpt>
      <trkpt lat="44.72915" lon="5.48278">
        <ele>1818</ele>
        <time>2017-08-16T14:18:44+02:00</time>
      </trkpt>
      <trkpt lat="44.72943" lon="5.48269">
        <ele>1825</ele>
        <time>2017-08-16T14:19:47+02:00</time>
      </trkpt>
      <trkpt lat="44.72962" lon="5.48251">
        <ele>1832</ele>
        <time>2017-08-16T14:20:23+02:00</time>
      </trkpt>
      <trkpt lat="44.72981" lon="5.48234">
        <ele>1839</ele>
        <time>2017-08-16T14:21:03+02:00</time>
      </trkpt>
      <trkpt lat="44.73001" lon="5.48218">
        <ele>1847</ele>
        <time>2017-08-16T14:21:49+02:00</time>
      </trkpt>
      <trkpt lat="44.73017" lon="5.48193">
        <ele>1852</ele>
        <time>2017-08-16T14:22:30+02:00</time>
      </trkpt>
      <trkpt lat="44.73038" lon="5.48179">
        <ele>1854</ele>
        <time>2017-08-16T14:22:58+02:00</time>
      </trkpt>
      <trkpt lat="44.73049" lon="5.48152">
        <ele>1859</ele>
        <time>2017-08-16T14:23:46+02:00</time>
      </trkpt>
      <trkpt lat="44.73067" lon="5.48132">
        <ele>1861</ele>
        <time>2017-08-16T14:24:14+02:00</time>
      </trkpt>
      <trkpt lat="44.73088" lon="5.4811">
        <ele>1864</ele>
        <time>2017-08-16T14:24:54+02:00</time>
      </trkpt>
      <trkpt lat="44.73085" lon="5.48077">
        <ele>1871</ele>
        <time>2017-08-16T14:25:23+02:00</time>
      </trkpt>
      <trkpt lat="44.73104" lon="5.48048">
        <ele>1875</ele>
        <time>2017-08-16T14:26:01+02:00</time>
      </trkpt>
      <trkpt lat="44.7311" lon="5.48015">
        <ele>1881</ele>
        <time>2017-08-16T14:26:28+02:00</time>
      </trkpt>
      <trkpt lat="44.73117" lon="5.47984">
        <ele>1886</ele>
        <time>2017-08-16T14:26:54+02:00</time>
      </trkpt>
      <trkpt lat="44.73144" lon="5.4798">
        <ele>1886</ele>
        <time>2017-08-16T14:27:42+02:00</time>
      </trkpt>
      <trkpt lat="44.73167" lon="5.47992">
        <ele>1884</ele>
        <time>2017-08-16T14:28:20+02:00</time>
      </trkpt>
      <trkpt lat="44.73189" lon="5.48">
        <ele>1885</ele>
        <time>2017-08-16T14:28:44+02:00</time>
      </trkpt>
      <trkpt lat="44.73214" lon="5.47994">
        <ele>1888</ele>
        <time>2017-08-16T14:29:10+02:00</time>
      </trkpt>
      <trkpt lat="44.73236" lon="5.47987">
        <ele>1891</ele>
        <time>2017-08-16T14:29:46+02:00</time>
      </trkpt>
      <trkpt lat="44.73259" lon="5.47987">
        <ele>1893</ele>
        <time>2017-08-16T14:30:09+02:00</time>
      </trkpt>
      <trkpt lat="44.73276" lon="5.4801">
        <ele>1889</ele>
        <time>2017-08-16T14:30:40+02:00</time>
      </trkpt>
      <trkpt lat="44.73299" lon="5.48007">
        <ele>1892</ele>
        <time>2017-08-16T14:31:14+02:00</time>
      </trkpt>
      <trkpt lat="44.73327" lon="5.48012">
        <ele>1894</ele>
        <time>2017-08-16T14:33:06+02:00</time>
      </trkpt>
      <trkpt lat="44.7336" lon="5.48029">
        <ele>1891</ele>
        <time>2017-08-16T14:33:18+02:00</time>
      </trkpt>
      <trkpt lat="44.73442" lon="5.48017">
        <ele>1897</ele>
        <time>2020-07-12T16:07:44+02:00</time>
      </trkpt>
      <trkpt lat="44.7353" lon="5.47978">
        <ele>1902</ele>
        <time>2020-07-12T16:07:49+02:00</time>
      </trkpt>
      <trkpt lat="44.73646" lon="5.47798">
        <ele>1911</ele>
        <time>2017-08-16T14:39:42+02:00</time>
      </trkpt>
      <trkpt lat="44.73686" lon="5.47716">
        <ele>1921</ele>
        <time>2017-08-16T14:40:18+02:00</time>
      </trkpt>
      <trkpt lat="44.73725" lon="5.47666">
        <ele>1923</ele>
        <time>2017-08-16T14:42:14+02:00</time>
      </trkpt>
      <trkpt lat="44.73754" lon="5.47623">
        <ele>1929</ele>
        <time>2017-08-16T14:42:54+02:00</time>
      </trkpt>
      <trkpt lat="44.73775" lon="5.47614">
        <ele>1926</ele>
        <time>2017-08-16T14:43:20+02:00</time>
      </trkpt>
      <trkpt lat="44.7378" lon="5.4758">
        <ele>1933</ele>
        <time>2017-08-16T14:44:34+02:00</time>
      </trkpt>
      <trkpt lat="44.73798" lon="5.47558">
        <ele>1933</ele>
        <time>2017-08-16T14:44:45+02:00</time>
      </trkpt>
      <trkpt lat="44.7389" lon="5.47396">
        <ele>1940</ele>
        <time>2017-08-16T14:48:51+02:00</time>
      </trkpt>
      <trkpt lat="44.73897" lon="5.47365">
        <ele>1945</ele>
        <time>2017-08-16T14:48:59+02:00</time>
      </trkpt>
      <trkpt lat="44.73912" lon="5.47341">
        <ele>1946</ele>
        <time>2017-08-16T14:49:13+02:00</time>
      </trkpt>
      <trkpt lat="44.739" lon="5.47314">
        <ele>1954</ele>
        <time>2017-08-16T14:49:58+02:00</time>
      </trkpt>
      <trkpt lat="44.73852" lon="5.47237">
        <ele>1982</ele>
        <time>2017-08-16T14:51:45+02:00</time>
      </trkpt>
      <trkpt lat="44.73874" lon="5.47242">
        <ele>1975</ele>
        <time>2017-08-16T14:51:47+02:00</time>
      </trkpt>
      <trkpt lat="44.73878" lon="5.47213">
        <ele>1978</ele>
        <time>2017-08-16T14:53:35+02:00</time>
      </trkpt>
      <trkpt lat="44.73864" lon="5.47199">
        <ele>1985</ele>
        <time>2017-08-16T14:53:54+02:00</time>
      </trkpt>
      <trkpt lat="44.73846" lon="5.47176">
        <ele>1994</ele>
        <time>2017-08-16T14:56:01+02:00</time>
      </trkpt>
      <trkpt lat="44.73825" lon="5.47166">
        <ele>2002</ele>
        <time>2017-08-16T14:56:30+02:00</time>
      </trkpt>
      <trkpt lat="44.73803" lon="5.47148">
        <ele>2009</ele>
        <time>2017-08-16T14:57:30+02:00</time>
      </trkpt>
      <trkpt lat="44.73784" lon="5.47127">
        <ele>2016</ele>
        <time>2017-08-16T14:57:49+02:00</time>
      </trkpt>
      <trkpt lat="44.73769" lon="5.47099">
        <ele>2024</ele>
        <time>2017-08-16T14:58:43+02:00</time>
      </trkpt>
      <trkpt lat="44.73753" lon="5.47072">
        <ele>2030</ele>
        <time>2017-08-16T14:59:04+02:00</time>
      </trkpt>
      <trkpt lat="44.73736" lon="5.47048">
        <ele>2031</ele>
        <time>2017-08-16T14:59:47+02:00</time>
      </trkpt>
      <trkpt lat="44.73724" lon="5.47021">
        <ele>2031</ele>
        <time>2017-08-16T15:00:16+02:00</time>
      </trkpt>
      <trkpt lat="44.73701" lon="5.47033">
        <ele>2030</ele>
        <time>2017-08-16T15:06:50+02:00</time>
      </trkpt>
      <trkpt lat="44.73677" lon="5.47032">
        <ele>2029</ele>
        <time>2017-08-16T15:06:58+02:00</time>
      </trkpt>
      <trkpt lat="44.73655" lon="5.47038">
        <ele>2028</ele>
        <time>2017-08-16T15:07:13+02:00</time>
      </trkpt>
      <trkpt lat="44.73633" lon="5.47051">
        <ele>2025</ele>
        <time>2017-08-16T15:07:28+02:00</time>
      </trkpt>
      <trkpt lat="44.73612" lon="5.47065">
        <ele>2023</ele>
        <time>2017-08-16T15:07:40+02:00</time>
      </trkpt>
      <trkpt lat="44.7359" lon="5.4705">
        <ele>2021</ele>
        <time>2017-08-16T15:07:59+02:00</time>
      </trkpt>
      <trkpt lat="44.73566" lon="5.47051">
        <ele>2017</ele>
        <time>2017-08-16T15:08:27+02:00</time>
      </trkpt>
      <trkpt lat="44.73543" lon="5.47054">
        <ele>2013</ele>
        <time>2017-08-16T15:08:45+02:00</time>
      </trkpt>
      <trkpt lat="44.7352" lon="5.47058">
        <ele>2010</ele>
        <time>2017-08-16T15:09:06+02:00</time>
      </trkpt>
      <trkpt lat="44.73498" lon="5.47068">
        <ele>2006</ele>
        <time>2017-08-16T15:09:26+02:00</time>
      </trkpt>
      <trkpt lat="44.73476" lon="5.47069">
        <ele>2003</ele>
        <time>2017-08-16T15:09:46+02:00</time>
      </trkpt>
      <trkpt lat="44.73453" lon="5.47076">
        <ele>2001</ele>
        <time>2017-08-16T15:11:35+02:00</time>
      </trkpt>
      <trkpt lat="44.73431" lon="5.47079">
        <ele>1998</ele>
        <time>2017-08-16T15:11:50+02:00</time>
      </trkpt>
      <trkpt lat="44.73407" lon="5.47083">
        <ele>1996</ele>
        <time>2017-08-16T15:12:14+02:00</time>
      </trkpt>
      <trkpt lat="44.73384" lon="5.47083">
        <ele>1995</ele>
        <time>2017-08-16T15:12:33+02:00</time>
      </trkpt>
      <trkpt lat="44.73362" lon="5.47093">
        <ele>1992</ele>
        <time>2017-08-16T15:12:52+02:00</time>
      </trkpt>
      <trkpt lat="44.73338" lon="5.47091">
        <ele>1991</ele>
        <time>2017-08-16T15:13:10+02:00</time>
      </trkpt>
      <trkpt lat="44.73315" lon="5.47096">
        <ele>1991</ele>
        <time>2017-08-16T15:13:33+02:00</time>
      </trkpt>
      <trkpt lat="44.73293" lon="5.47103">
        <ele>1991</ele>
        <time>2017-08-16T15:13:55+02:00</time>
      </trkpt>
      <trkpt lat="44.73269" lon="5.47098">
        <ele>1991</ele>
        <time>2017-08-16T15:14:14+02:00</time>
      </trkpt>
      <trkpt lat="44.73247" lon="5.47105">
        <ele>1991</ele>
        <time>2017-08-16T15:14:38+02:00</time>
      </trkpt>
      <trkpt lat="44.73224" lon="5.47111">
        <ele>1987</ele>
        <time>2017-08-16T15:14:56+02:00</time>
      </trkpt>
      <trkpt lat="44.73202" lon="5.47119">
        <ele>1983</ele>
        <time>2017-08-16T15:17:02+02:00</time>
      </trkpt>
      <trkpt lat="44.73188" lon="5.47145">
        <ele>1981</ele>
        <time>2017-08-16T15:17:17+02:00</time>
      </trkpt>
      <trkpt lat="44.73184" lon="5.47176">
        <ele>1979</ele>
        <time>2017-08-16T15:17:35+02:00</time>
      </trkpt>
      <trkpt lat="44.73196" lon="5.47205">
        <ele>1977</ele>
        <time>2017-08-16T15:21:59+02:00</time>
      </trkpt>
      <trkpt lat="44.732" lon="5.47238">
        <ele>1974</ele>
        <time>2017-08-16T15:22:08+02:00</time>
      </trkpt>
      <trkpt lat="44.73182" lon="5.47262">
        <ele>1967</ele>
        <time>2017-08-16T15:22:25+02:00</time>
      </trkpt>
      <trkpt lat="44.73172" lon="5.47291">
        <ele>1962</ele>
        <time>2017-08-16T15:22:50+02:00</time>
      </trkpt>
      <trkpt lat="44.73164" lon="5.47321">
        <ele>1955</ele>
        <time>2017-08-16T15:23:32+02:00</time>
      </trkpt>
      <trkpt lat="44.73161" lon="5.47353">
        <ele>1951</ele>
        <time>2017-08-16T15:23:59+02:00</time>
      </trkpt>
      <trkpt lat="44.73155" lon="5.47384">
        <ele>1946</ele>
        <time>2017-08-16T15:24:34+02:00</time>
      </trkpt>
      <trkpt lat="44.73159" lon="5.47416">
        <ele>1947</ele>
        <time>2017-08-16T15:25:02+02:00</time>
      </trkpt>
      <trkpt lat="44.73123" lon="5.47467">
        <ele>1929</ele>
        <time>2017-08-16T15:25:53+02:00</time>
      </trkpt>
      <trkpt lat="44.73097" lon="5.47497">
        <ele>1921</ele>
        <time>2017-08-16T15:27:45+02:00</time>
      </trkpt>
      <trkpt lat="44.73082" lon="5.47521">
        <ele>1917</ele>
        <time>2017-08-16T15:28:12+02:00</time>
      </trkpt>
      <trkpt lat="44.73072" lon="5.4755">
        <ele>1910</ele>
        <time>2017-08-16T15:28:29+02:00</time>
      </trkpt>
      <trkpt lat="44.7306" lon="5.47578">
        <ele>1904</ele>
        <time>2017-08-16T15:28:51+02:00</time>
      </trkpt>
      <trkpt lat="44.73048" lon="5.47639">
        <ele>1896</ele>
        <time>2020-07-12T16:12:59+02:00</time>
      </trkpt>
      <trkpt lat="44.73039" lon="5.47705">
        <ele>1890</ele>
        <time>2020-07-12T16:13:04+02:00</time>
      </trkpt>
      <trkpt lat="44.73035" lon="5.47806">
        <ele>1886</ele>
        <time>2020-07-12T16:13:09+02:00</time>
      </trkpt>
      <trkpt lat="44.73018" lon="5.47926">
        <ele>1884</ele>
        <time>2020-07-12T16:13:14+02:00</time>
      </trkpt>
      <trkpt lat="44.73004" lon="5.47984">
        <ele>1878</ele>
        <time>2017-08-16T15:33:50+02:00</time>
      </trkpt>
      <trkpt lat="44.72998" lon="5.48045">
        <ele>1872</ele>
        <time>2017-08-16T15:34:08+02:00</time>
      </trkpt>
      <trkpt lat="44.72988" lon="5.48073">
        <ele>1863</ele>
        <time>2017-08-16T15:34:39+02:00</time>
      </trkpt>
      <trkpt lat="44.72958" lon="5.4811">
        <ele>1842</ele>
        <time>2017-08-16T15:35:21+02:00</time>
      </trkpt>
      <trkpt lat="44.72934" lon="5.48179">
        <ele>1830</ele>
        <time>2020-07-12T16:13:39+02:00</time>
      </trkpt>
      <trkpt lat="44.72889" lon="5.48248">
        <ele>1808</ele>
        <time>2017-08-16T15:37:57+02:00</time>
      </trkpt>
      <trkpt lat="44.72871" lon="5.4829">
        <ele>1801</ele>
        <time>2017-08-16T15:38:18+02:00</time>
      </trkpt>
      <trkpt lat="44.72849" lon="5.48302">
        <ele>1794</ele>
        <time>2017-08-16T15:39:02+02:00</time>
      </trkpt>
      <trkpt lat="44.72823" lon="5.48327">
        <ele>1791</ele>
        <time>2017-08-16T20:35:05+02:00</time>
      </trkpt>
      <trkpt lat="44.72843" lon="5.48422">
        <ele>1791</ele>
        <time>2017-08-16T20:35:10+02:00</time>
      </trkpt>
      <trkpt lat="44.72855" lon="5.48478">
        <ele>1780</ele>
        <time>2017-08-16T20:35:15+02:00</time>
      </trkpt>
      <trkpt lat="44.7286" lon="5.48557">
        <ele>1767</ele>
        <time>2017-08-16T20:35:20+02:00</time>
      </trkpt>
      <trkpt lat="44.72902" lon="5.48583">
        <ele>1767</ele>
        <time>2017-08-16T20:35:25+02:00</time>
      </trkpt>
      <trkpt lat="44.72931" lon="5.48606">
        <ele>1769</ele>
        <time>2017-08-16T20:35:30+02:00</time>
      </trkpt>
      <trkpt lat="44.72899" lon="5.48677">
        <ele>1769</ele>
        <time>2017-08-16T20:35:35+02:00</time>
      </trkpt>
      <trkpt lat="44.72863" lon="5.48737">
        <ele>1765</ele>
        <time>2020-07-12T16:14:34+02:00</time>
      </trkpt>
      <trkpt lat="44.72826" lon="5.4877">
        <ele>1758</ele>
        <time>2017-08-16T20:35:40+02:00</time>
      </trkpt>
      <trkpt lat="44.72788" lon="5.48804">
        <ele>1759</ele>
        <time>2020-07-12T16:14:44+02:00</time>
      </trkpt>
      <trkpt lat="44.72774" lon="5.48853">
        <ele>1762</ele>
        <time>2017-08-16T20:35:45+02:00</time>
      </trkpt>
      <trkpt lat="44.72789" lon="5.48913">
        <ele>1764</ele>
        <time>2020-07-12T16:14:54+02:00</time>
      </trkpt>
      <trkpt lat="44.72796" lon="5.48971">
        <ele>1764</ele>
        <time>2017-08-16T20:35:50+02:00</time>
      </trkpt>
      <trkpt lat="44.72742" lon="5.49023">
        <ele>1765</ele>
        <time>2017-08-16T20:35:55+02:00</time>
      </trkpt>
      <trkpt lat="44.72706" lon="5.48978">
        <ele>1764</ele>
        <time>2017-08-16T20:36:00+02:00</time>
      </trkpt>
      <trkpt lat="44.72628" lon="5.48982">
        <ele>1766</ele>
        <time>2020-07-12T16:15:14+02:00</time>
      </trkpt>
      <trkpt lat="44.72498" lon="5.48988">
        <ele>1772</ele>
        <time>2017-08-16T20:36:05+02:00</time>
      </trkpt>
      <trkpt lat="44.72451" lon="5.48988">
        <ele>1775</ele>
        <time>2017-08-16T20:36:10+02:00</time>
      </trkpt>
      <trkpt lat="44.72349" lon="5.48898">
        <ele>1777</ele>
        <time>2017-08-16T20:36:15+02:00</time>
      </trkpt>
      <trkpt lat="44.72302" lon="5.48894">
        <ele>1769</ele>
        <time>2017-08-16T20:36:20+02:00</time>
      </trkpt>
      <trkpt lat="44.72267" lon="5.48907">
        <ele>1767</ele>
        <time>2017-08-16T20:36:25+02:00</time>
      </trkpt>
      <trkpt lat="44.7221" lon="5.48915">
        <ele>1754</ele>
        <time>2017-08-16T20:36:30+02:00</time>
      </trkpt>
      <trkpt lat="44.72142" lon="5.48934">
        <ele>1731</ele>
        <time>2017-08-16T20:36:35+02:00</time>
      </trkpt>
      <trkpt lat="44.72105" lon="5.48937">
        <ele>1709</ele>
        <time>2017-08-16T20:36:40+02:00</time>
      </trkpt>
      <trkpt lat="44.72093" lon="5.48929">
        <ele>1701</ele>
        <time>2017-08-16T20:36:45+02:00</time>
      </trkpt>
      <trkpt lat="44.7213" lon="5.48915">
        <ele>1721</ele>
        <time>2017-08-16T20:36:50+02:00</time>
      </trkpt>
      <trkpt lat="44.72131" lon="5.48904">
        <ele>1718</ele>
        <time>2017-08-16T20:36:55+02:00</time>
      </trkpt>
      <trkpt lat="44.72096" lon="5.48896">
        <ele>1698</ele>
        <time>2017-08-16T20:37:00+02:00</time>
      </trkpt>
      <trkpt lat="44.72093" lon="5.48875">
        <ele>1692</ele>
        <time>2017-08-16T20:37:10+02:00</time>
      </trkpt>
      <trkpt lat="44.72066" lon="5.48868">
        <ele>1671</ele>
        <time>2017-08-16T20:37:15+02:00</time>
      </trkpt>
      <trkpt lat="44.72082" lon="5.48849">
        <ele>1682</ele>
        <time>2017-08-16T20:37:20+02:00</time>
      </trkpt>
      <trkpt lat="44.72048" lon="5.4884">
        <ele>1649</ele>
        <time>2017-08-16T20:37:25+02:00</time>
      </trkpt>
      <trkpt lat="44.72043" lon="5.48819">
        <ele>1638</ele>
        <time>2017-08-16T20:37:35+02:00</time>
      </trkpt>
      <trkpt lat="44.72028" lon="5.48809">
        <ele>1621</ele>
        <time>2017-08-16T20:37:40+02:00</time>
      </trkpt>
      <trkpt lat="44.72083" lon="5.4879">
        <ele>1663</ele>
        <time>2017-08-16T20:37:45+02:00</time>
      </trkpt>
      <trkpt lat="44.72091" lon="5.48764">
        <ele>1655</ele>
        <time>2017-08-16T20:37:55+02:00</time>
      </trkpt>
      <trkpt lat="44.72103" lon="5.48748">
        <ele>1652</ele>
        <time>2017-08-16T20:38:00+02:00</time>
      </trkpt>
      <trkpt lat="44.72102" lon="5.48726">
        <ele>1642</ele>
        <time>2017-08-16T20:38:10+02:00</time>
      </trkpt>
      <trkpt lat="44.72082" lon="5.48692">
        <ele>1622</ele>
        <time>2017-08-16T20:38:15+02:00</time>
      </trkpt>
      <trkpt lat="44.7212" lon="5.48638">
        <ele>1607</ele>
        <time>2020-07-12T16:17:14+02:00</time>
      </trkpt>
      <trkpt lat="44.72168" lon="5.48592">
        <ele>1599</ele>
        <time>2017-08-16T20:38:20+02:00</time>
      </trkpt>
      <trkpt lat="44.72182" lon="5.48567">
        <ele>1596</ele>
        <time>2017-08-16T20:38:25+02:00</time>
      </trkpt>
      <trkpt lat="44.7217" lon="5.48528">
        <ele>1577</ele>
        <time>2017-08-16T20:38:30+02:00</time>
      </trkpt>
      <trkpt lat="44.72123" lon="5.48566">
        <ele>1576</ele>
        <time>2017-08-16T20:38:35+02:00</time>
      </trkpt>
      <trkpt lat="44.72109" lon="5.48569">
        <ele>1573</ele>
        <time>2017-08-16T20:38:40+02:00</time>
      </trkpt>
      <trkpt lat="44.72105" lon="5.48543">
        <ele>1562</ele>
        <time>2017-08-16T20:38:45+02:00</time>
      </trkpt>
      <trkpt lat="44.72081" lon="5.48553">
        <ele>1558</ele>
        <time>2017-08-16T20:38:50+02:00</time>
      </trkpt>
      <trkpt lat="44.72067" lon="5.48552">
        <ele>1550</ele>
        <time>2017-08-16T20:38:55+02:00</time>
      </trkpt>
      <trkpt lat="44.72061" lon="5.48524">
        <ele>1536</ele>
        <time>2017-08-16T20:39:00+02:00</time>
      </trkpt>
      <trkpt lat="44.7207" lon="5.48476">
        <ele>1520</ele>
        <time>2017-08-16T20:39:05+02:00</time>
      </trkpt>
      <trkpt lat="44.72014" lon="5.48474">
        <ele>1491</ele>
        <time>2017-08-16T20:39:10+02:00</time>
      </trkpt>
      <trkpt lat="44.71987" lon="5.48491">
        <ele>1485</ele>
        <time>2017-08-16T20:39:15+02:00</time>
      </trkpt>
      <trkpt lat="44.71968" lon="5.48513">
        <ele>1481</ele>
        <time>2017-08-16T20:39:20+02:00</time>
      </trkpt>
      <trkpt lat="44.71946" lon="5.48508">
        <ele>1465</ele>
        <time>2017-08-16T20:39:25+02:00</time>
      </trkpt>
      <trkpt lat="44.71935" lon="5.48473">
        <ele>1450</ele>
        <time>2017-08-16T20:39:30+02:00</time>
      </trkpt>
      <trkpt lat="44.71916" lon="5.48449">
        <ele>1436</ele>
        <time>2017-08-16T20:39:35+02:00</time>
      </trkpt>
      <trkpt lat="44.71898" lon="5.48433">
        <ele>1425</ele>
        <time>2017-08-16T20:39:40+02:00</time>
      </trkpt>
      <trkpt lat="44.71883" lon="5.48399">
        <ele>1409</ele>
        <time>2017-08-16T20:39:45+02:00</time>
      </trkpt>
      <trkpt lat="44.71871" lon="5.48372">
        <ele>1397</ele>
        <time>2017-08-16T20:39:50+02:00</time>
      </trkpt>
      <trkpt lat="44.71855" lon="5.48376">
        <ele>1394</ele>
        <time>2017-08-16T20:39:55+02:00</time>
      </trkpt>
      <trkpt lat="44.7183" lon="5.48357">
        <ele>1385</ele>
        <time>2017-08-16T20:40:00+02:00</time>
      </trkpt>
      <trkpt lat="44.7182" lon="5.48385">
        <ele>1381</ele>
        <time>2017-08-16T20:40:05+02:00</time>
      </trkpt>
      <trkpt lat="44.71813" lon="5.48444">
        <ele>1378</ele>
        <time>2017-08-16T20:40:10+02:00</time>
      </trkpt>
      <trkpt lat="44.71806" lon="5.48517">
        <ele>1373</ele>
        <time>2017-08-16T20:40:15+02:00</time>
      </trkpt>
      <trkpt lat="44.71793" lon="5.4856">
        <ele>1365</ele>
        <time>2017-08-16T20:40:20+02:00</time>
      </trkpt>
      <trkpt lat="44.71781" lon="5.48589">
        <ele>1359</ele>
        <time>2017-08-16T20:40:25+02:00</time>
      </trkpt>
      <trkpt lat="44.71769" lon="5.48596">
        <ele>1351</ele>
        <time>2017-08-16T20:40:30+02:00</time>
      </trkpt>
      <trkpt lat="44.71756" lon="5.48565">
        <ele>1339</ele>
        <time>2017-08-16T20:40:35+02:00</time>
      </trkpt>
      <trkpt lat="44.7174" lon="5.48582">
        <ele>1329</ele>
        <time>2017-08-16T20:40:40+02:00</time>
      </trkpt>
      <trkpt lat="44.71735" lon="5.48538">
        <ele>1323</ele>
        <time>2017-08-16T20:40:45+02:00</time>
      </trkpt>
      <trkpt lat="44.7172" lon="5.48557">
        <ele>1314</ele>
        <time>2017-08-16T20:40:50+02:00</time>
      </trkpt>
      <trkpt lat="44.71708" lon="5.48557">
        <ele>1305</ele>
        <time>2017-08-16T20:41:00+02:00</time>
      </trkpt>
      <trkpt lat="44.71698" lon="5.48577">
        <ele>1299</ele>
        <time>2017-08-16T20:41:05+02:00</time>
      </trkpt>
      <trkpt lat="44.71683" lon="5.48561">
        <ele>1288</ele>
        <time>2017-08-16T20:41:10+02:00</time>
      </trkpt>
      <trkpt lat="44.71659" lon="5.48599">
        <ele>1276</ele>
        <time>2017-08-16T20:41:15+02:00</time>
      </trkpt>
      <trkpt lat="44.7165" lon="5.48612">
        <ele>1272</ele>
        <time>2017-08-16T20:41:20+02:00</time>
      </trkpt>
      <trkpt lat="44.7163" lon="5.48582">
        <ele>1254</ele>
        <time>2017-08-16T20:41:25+02:00</time>
      </trkpt>
      <trkpt lat="44.71595" lon="5.48639">
        <ele>1243</ele>
        <time>2017-08-16T20:41:30+02:00</time>
      </trkpt>
      <trkpt lat="44.71526" lon="5.48696">
        <ele>1221</ele>
        <time>2017-08-16T20:41:35+02:00</time>
      </trkpt>
      <trkpt lat="44.71481" lon="5.48746">
        <ele>1215</ele>
        <time>2017-08-16T20:41:40+02:00</time>
      </trkpt>
      <trkpt lat="44.71444" lon="5.48769">
        <ele>1208</ele>
        <time>2017-08-16T20:41:45+02:00</time>
      </trkpt>
      <trkpt lat="44.71345" lon="5.48771">
        <ele>1183</ele>
        <time>2017-08-16T20:41:50+02:00</time>
      </trkpt>
      <trkpt lat="44.7127" lon="5.48761">
        <ele>1165</ele>
        <time>2017-08-16T20:41:55+02:00</time>
      </trkpt>
      <trkpt lat="44.71233" lon="5.48756">
        <ele>1160</ele>
        <time>2017-08-16T20:42:00+02:00</time>
      </trkpt>
      <trkpt lat="44.71214" lon="5.48743">
        <ele>1157</ele>
        <time>2017-08-16T20:42:05+02:00</time>
      </trkpt>
      <trkpt lat="44.71175" lon="5.48694">
        <ele>1150</ele>
        <time>2017-08-16T20:42:10+02:00</time>
      </trkpt>
      <trkpt lat="44.71161" lon="5.48673">
        <ele>1147</ele>
        <time>2017-08-16T20:42:20+02:00</time>
      </trkpt>
      <trkpt lat="44.71142" lon="5.48678">
        <ele>1143</ele>
        <time>2017-08-16T20:42:25+02:00</time>
      </trkpt>
      <trkpt lat="44.71128" lon="5.4869">
        <ele>1140</ele>
        <time>2017-08-16T20:42:30+02:00</time>
      </trkpt>
      <trkpt lat="44.7112" lon="5.48653">
        <ele>1133</ele>
        <time>2017-08-16T20:42:35+02:00</time>
      </trkpt>
      <trkpt lat="44.71107" lon="5.4868">
        <ele>1134</ele>
        <time>2017-08-16T20:42:40+02:00</time>
      </trkpt>
      <trkpt lat="44.71076" lon="5.48583">
        <ele>1119</ele>
        <time>2017-08-16T20:42:45+02:00</time>
      </trkpt>
      <trkpt lat="44.7105" lon="5.48551">
        <ele>1102</ele>
        <time>2017-08-16T20:42:50+02:00</time>
      </trkpt>
      <trkpt lat="44.70996" lon="5.48488">
        <ele>1084</ele>
        <time>2017-08-16T20:42:55+02:00</time>
      </trkpt>
      <trkpt lat="44.70981" lon="5.48478">
        <ele>1077</ele>
        <time>2017-08-16T20:43:00+02:00</time>
      </trkpt>
      <trkpt lat="44.70976" lon="5.48543">
        <ele>1082</ele>
        <time>2017-08-16T20:43:05+02:00</time>
      </trkpt>
      <trkpt lat="44.7098" lon="5.48602">
        <ele>1081</ele>
        <time>2017-08-16T20:43:10+02:00</time>
      </trkpt>
      <trkpt lat="44.70971" lon="5.48636">
        <ele>1072</ele>
        <time>2017-08-16T20:43:15+02:00</time>
      </trkpt>
      <trkpt lat="44.70938" lon="5.48586">
        <ele>1058</ele>
        <time>2017-08-16T20:43:20+02:00</time>
      </trkpt>
      <trkpt lat="44.70909" lon="5.4854">
        <ele>1050</ele>
        <time>2017-08-16T20:43:25+02:00</time>
      </trkpt>
      <trkpt lat="44.70876" lon="5.48519">
        <ele>1036</ele>
        <time>2017-08-16T20:43:30+02:00</time>
      </trkpt>
      <trkpt lat="44.7085" lon="5.48484">
        <ele>1025</ele>
        <time>2017-08-16T20:43:35+02:00</time>
      </trkpt>
      <trkpt lat="44.70838" lon="5.48419">
        <ele>1015</ele>
        <time>2017-08-16T20:43:40+02:00</time>
      </trkpt>
      <trkpt lat="44.70824" lon="5.48436">
        <ele>1007</ele>
        <time>2017-08-16T20:43:45+02:00</time>
      </trkpt>
      <trkpt lat="44.70815" lon="5.48518">
        <ele>999</ele>
        <time>2017-08-16T20:43:50+02:00</time>
      </trkpt>
      <trkpt lat="44.70809" lon="5.48594">
        <ele>975</ele>
        <time>2017-08-16T20:43:55+02:00</time>
      </trkpt>
      <trkpt lat="44.70822" lon="5.48641">
        <ele>970</ele>
        <time>2017-08-16T20:44:00+02:00</time>
      </trkpt>
      <trkpt lat="44.70803" lon="5.48715">
        <ele>953</ele>
        <time>2017-08-16T20:44:05+02:00</time>
      </trkpt>
      <trkpt lat="44.70794" lon="5.48734">
        <ele>949</ele>
        <time>2017-08-16T20:44:10+02:00</time>
      </trkpt>
      <trkpt lat="44.70773" lon="5.48737">
        <ele>940</ele>
        <time>2017-08-16T20:44:15+02:00</time>
      </trkpt>
      <trkpt lat="44.70695" lon="5.4872">
        <ele>914</ele>
        <time>2017-08-16T20:44:20+02:00</time>
      </trkpt>
      <trkpt lat="44.70643" lon="5.48727">
        <ele>909</ele>
        <time>2017-08-16T20:44:25+02:00</time>
      </trkpt>
      <trkpt lat="44.70614" lon="5.48752">
        <ele>921</ele>
        <time>2017-08-16T20:44:30+02:00</time>
      </trkpt>
      <trkpt lat="44.70607" lon="5.4876">
        <ele>925</ele>
        <time>2017-08-16T20:44:35+02:00</time>
      </trkpt>
      <trkpt lat="44.70562" lon="5.48704">
        <ele>894</ele>
        <time>2017-08-16T20:44:40+02:00</time>
      </trkpt>
      <trkpt lat="44.70538" lon="5.48676">
        <ele>880</ele>
        <time>2017-08-16T20:44:45+02:00</time>
      </trkpt>
      <trkpt lat="44.70489" lon="5.48649">
        <ele>873</ele>
        <time>2017-08-16T20:44:50+02:00</time>
      </trkpt>
      <trkpt lat="44.7046" lon="5.48617">
        <ele>864</ele>
        <time>2017-08-16T20:44:55+02:00</time>
      </trkpt>
      <trkpt lat="44.70405" lon="5.48534">
        <ele>837</ele>
        <time>2017-08-16T20:45:00+02:00</time>
      </trkpt>
      <trkpt lat="44.70395" lon="5.48513">
        <ele>828</ele>
        <time>2017-08-16T20:45:05+02:00</time>
      </trkpt>
      <trkpt lat="44.70377" lon="5.48498">
        <ele>824</ele>
        <time>2017-08-16T20:45:10+02:00</time>
      </trkpt>
      <trkpt lat="44.70345" lon="5.48444">
        <ele>809</ele>
        <time>2017-08-16T20:45:15+02:00</time>
      </trkpt>
      <trkpt lat="44.70322" lon="5.48417">
        <ele>798</ele>
        <time>2017-08-16T20:45:20+02:00</time>
      </trkpt>
      <trkpt lat="44.70337" lon="5.48349">
        <ele>776</ele>
        <time>2017-08-16T20:45:25+02:00</time>
      </trkpt>
      <trkpt lat="44.70327" lon="5.48309">
        <ele>763</ele>
        <time>2017-08-16T20:45:30+02:00</time>
      </trkpt>
      <trkpt lat="44.70304" lon="5.48251">
        <ele>741</ele>
        <time>2017-08-16T20:45:35+02:00</time>
      </trkpt>
      <trkpt lat="44.70294" lon="5.48247">
        <ele>738</ele>
        <time>2017-08-16T20:45:40+02:00</time>
      </trkpt>
      <trkpt lat="44.70284" lon="5.4832">
        <ele>754</ele>
        <time>2017-08-16T20:45:45+02:00</time>
      </trkpt>
      <trkpt lat="44.70255" lon="5.48354">
        <ele>758</ele>
        <time>2017-08-16T20:45:50+02:00</time>
      </trkpt>
      <trkpt lat="44.70202" lon="5.48368">
        <ele>751</ele>
        <time>2017-08-16T20:45:55+02:00</time>
      </trkpt>
      <trkpt lat="44.70164" lon="5.48382">
        <ele>747</ele>
        <time>2017-08-16T20:46:00+02:00</time>
      </trkpt>
      <trkpt lat="44.70132" lon="5.48378">
        <ele>741</ele>
        <time>2017-08-16T20:46:05+02:00</time>
      </trkpt>
      <trkpt lat="44.70105" lon="5.48368">
        <ele>736</ele>
        <time>2017-08-16T20:46:10+02:00</time>
      </trkpt>
      <trkpt lat="44.7008" lon="5.48371">
        <ele>733</ele>
        <time>2017-08-16T20:46:15+02:00</time>
      </trkpt>
      <trkpt lat="44.70061" lon="5.48326">
        <ele>729</ele>
        <time>2017-08-16T20:46:20+02:00</time>
      </trkpt>
      <trkpt lat="44.70052" lon="5.48303">
        <ele>729</ele>
        <time>2017-08-16T20:46:25+02:00</time>
      </trkpt>
      <trkpt lat="44.69989" lon="5.48312">
        <ele>724</ele>
        <time>2017-08-16T20:46:30+02:00</time>
      </trkpt>
      <trkpt lat="44.69944" lon="5.48316">
        <ele>714</ele>
        <time>2017-08-16T20:46:35+02:00</time>
      </trkpt>
      <trkpt lat="44.69975" lon="5.48343">
        <ele>717</ele>
        <time>2017-08-16T20:46:40+02:00</time>
      </trkpt>
      <trkpt lat="44.69976" lon="5.48348">
        <ele>716</ele>
        <time>2017-08-16T20:46:45+02:00</time>
      </trkpt>
      <trkpt lat="44.69949" lon="5.48351">
        <ele>711</ele>
        <time>2017-08-16T20:46:50+02:00</time>
      </trkpt>
      <trkpt lat="44.69922" lon="5.48355">
        <ele>705</ele>
        <time>2017-08-16T20:46:55+02:00</time>
      </trkpt>
      <trkpt lat="44.69886" lon="5.48326">
        <ele>693</ele>
        <time>2017-08-16T20:47:00+02:00</time>
      </trkpt>
      <trkpt lat="44.69929" lon="5.48405">
        <ele>696</ele>
        <time>2017-08-16T20:47:05+02:00</time>
      </trkpt>
      <trkpt lat="44.69956" lon="5.48435">
        <ele>700</ele>
        <time>2017-08-16T20:47:10+02:00</time>
      </trkpt>
      <trkpt lat="44.69924" lon="5.48447">
        <ele>691</ele>
        <time>2017-08-16T20:47:15+02:00</time>
      </trkpt>
      <trkpt lat="44.69895" lon="5.48446">
        <ele>682</ele>
        <time>2017-08-16T20:47:20+02:00</time>
      </trkpt>
      <trkpt lat="44.69858" lon="5.48467">
        <ele>670</ele>
        <time>2017-08-16T20:47:25+02:00</time>
      </trkpt>
      <trkpt lat="44.69847" lon="5.48477">
        <ele>666</ele>
        <time>2017-08-16T20:47:30+02:00</time>
      </trkpt>
      <trkpt lat="44.69836" lon="5.48502">
        <ele>663</ele>
        <time>2017-08-16T20:47:35+02:00</time>
      </trkpt>
      <trkpt lat="44.69831" lon="5.48449">
        <ele>662</ele>
        <time>2017-08-16T20:47:40+02:00</time>
      </trkpt>
      <trkpt lat="44.69855" lon="5.48433">
        <ele>670</ele>
        <time>2017-08-16T20:47:45+02:00</time>
      </trkpt>
      <trkpt lat="44.69821" lon="5.48438">
        <ele>658</ele>
        <time>2017-08-16T20:47:50+02:00</time>
      </trkpt>
      <trkpt lat="44.69803" lon="5.48481">
        <ele>650</ele>
        <time>2017-08-16T20:47:55+02:00</time>
      </trkpt>
      <trkpt lat="44.69793" lon="5.48511">
        <ele>645</ele>
        <time>2017-08-16T20:48:00+02:00</time>
      </trkpt>
      <trkpt lat="44.69776" lon="5.48535">
        <ele>637</ele>
        <time>2017-08-16T20:48:05+02:00</time>
      </trkpt>
      <trkpt lat="44.69764" lon="5.48489">
        <ele>634</ele>
        <time>2017-08-16T20:48:10+02:00</time>
      </trkpt>
      <trkpt lat="44.69754" lon="5.48481">
        <ele>630</ele>
        <time>2017-08-16T20:48:20+02:00</time>
      </trkpt>
      <trkpt lat="44.69738" lon="5.48467">
        <ele>625</ele>
        <time>2017-08-16T20:48:25+02:00</time>
      </trkpt>
      <trkpt lat="44.69722" lon="5.48452">
        <ele>621</ele>
        <time>2017-08-16T20:48:30+02:00</time>
      </trkpt>
      <trkpt lat="44.6971" lon="5.48434">
        <ele>617</ele>
        <time>2017-08-16T20:48:35+02:00</time>
      </trkpt>
      <trkpt lat="44.69696" lon="5.48422">
        <ele>613</ele>
        <time>2017-08-16T20:48:40+02:00</time>
      </trkpt>
      <trkpt lat="44.69667" lon="5.48424">
        <ele>605</ele>
        <time>2017-08-16T20:48:45+02:00</time>
      </trkpt>
      <trkpt lat="44.69651" lon="5.48425">
        <ele>604</ele>
        <time>2017-08-16T20:48:50+02:00</time>
      </trkpt>
      <trkpt lat="44.69631" lon="5.48431">
        <ele>603</ele>
        <time>2020-07-12T16:27:39+02:00</time>
      </trkpt>
      <trkpt lat="44.69624" lon="5.48448">
        <ele>602</ele>
        <time>2020-07-12T16:27:44+02:00</time>
      </trkpt>
      <trkpt lat="44.69617" lon="5.48458">
        <ele>601</ele>
        <time>2017-08-16T20:49:00+02:00</time>
      </trkpt>
      <trkpt lat="44.69588" lon="5.48495">
        <ele>595</ele>
        <time>2017-08-16T20:49:05+02:00</time>
      </trkpt>
      <trkpt lat="44.69523" lon="5.48514">
        <ele>588</ele>
        <time>2017-08-16T20:49:10+02:00</time>
      </trkpt>
    </trkseg>
  </trk>
</gpx>